Главная страница
METAR-TAF:

METAR-TAF

Аэропорты :

Elkins-Randolph County Airport (Jennings Randolph Field)

Elkins, Западная Виргиния, США

широта: 38-53-07N, долгота: 079-51-10W, высота над уровнем моря: 605 м

Текущие метеонаблюдения

Эта сводка был подготовлена 38 минут назад, в 13:51 UTC
Штиль
Температура 21°C
Влажность 78%
Давление 1023 hPa
Видимость: 14.5 км
ясное небо

METAR: KEKN 161351Z AUTO 00000KT 9SM CLR 21/17 A3020 RMK AO2 SLP221 T02110172 TSNO

Время: 10:29 (14:29 UTC)

Прогноз

Эта сводка был подготовлена 3 часа и 9 минут назад, в 11:20 UTC
Прогноз действительный с 16-го 12 UTC до 17-го 12 UTC
Ветер 5 Узел от западный
Видимость: 10 км
Отдельные облака на высоте 4500 фута

TAF: KEKN 161120Z 1612/1712 26005KT P6SM SCT045

Метеонаблюдения и прогнозы для более 4000 аэропортов (сводки METAR и TAF).

Имеющиеся станции представлены на карте желтыми и красными точками.

Чтобы увидеть название станции, наведите на нее мышь.

Затем щелкните, чтобы увидеть метеонаблюдения и метеопрогнозы.

Управление картой: чтобы увеличить масштаб, щелкните зеленые кнопки с черным крестиком; чтобы уменьшить масштаб, щелкните зеленую кнопку с тире; для просмотра соседних карт щелкайте зеленые стрелки.


METAR-TAF: